Alpha, Kentucky
Current Conditions -  °F | °C
As of 5:56 AM on Thursday 23 Oct 2014 (Local Time) from KEKQ Reporting Station
Overcast Overcast  
Wind Chill: 46°   Ceiling: 2600
Heat Index: 46°   Visibility: 10mi
Dew Point: 41°   Wind: 3mph
Humidity: 83%   Direction: 50°NE
Pressure: 30.25"   Gusts: NA
Location:  36.77°N, 85.01°W
Report Text: KEKQ 231056Z AUTO 05003KT 10SM OVC026 08/05 A3025 RMK AO2 T00770050 SLP253
Loading
Personal Weather Stations






























Interactive Weather Map New forecast layout! Learn more

10-Day Weather Forecast

Advertisements
Track Severe Weather on mobile